Time;durP1;ratioP1;P1;durP2;ratioP2;P2;SDS_P1;SDS_P2;PMS_P1;PMS_P2;Temp;Humidity;BMP_temperature;BMP_pressure;BME280_temperature;BME280_humidity;BME280_pressure;Samples;Min_cycle;Max_cycle;Signal;HPM_P1;HPM_P2
2023/09/09 00:01:06;;;;;;;;;17.25;14.50;;;;;28.49;43.56;101083.88;5056904;28;45668;-58
2023/09/09 00:03:32;;;;;;;;;19.40;15.80;;;;;28.43;43.90;101081.31;5058054;28;45394;-59
2023/09/09 00:05:57;;;;;;;;;18.00;15.75;;;;;28.39;43.78;101089.22;5058589;28;45801;-61
2023/09/09 00:08:22;;;;;;;;;16.50;13.00;;;;;28.35;43.84;101083.44;5057970;28;46112;-55
2023/09/09 00:10:48;;;;;;;;;18.25;13.50;;;;;28.34;43.40;101080.94;5057858;28;47995;-62
2023/09/09 00:13:14;;;;;;;;;17.00;15.50;;;;;28.32;43.78;101081.19;5056679;28;45803;-61
2023/09/09 00:15:39;;;;;;;;;16.60;16.00;;;;;28.32;43.91;101083.94;5057818;28;45412;-59
2023/09/09 00:18:05;;;;;;;;;16.75;16.25;;;;;28.31;43.99;101086.91;5057967;28;46034;-57
2023/09/09 00:20:32;;;;;;;;;18.75;15.50;;;;;28.31;43.70;101086.91;5057937;28;45380;-61
2023/09/09 00:22:57;;;;;;;;;15.00;11.60;;;;;28.28;43.17;101082.78;5057807;28;45442;-54
2023/09/09 00:25:22;;;;;;;;;13.25;12.50;;;;;28.22;43.31;101077.50;5057664;28;45449;-53
2023/09/09 00:27:48;;;;;;;;;13.50;13.50;;;;;28.21;43.56;101081.34;5057260;28;46298;-49
2023/09/09 00:30:13;;;;;;;;;11.50;10.75;;;;;28.16;43.16;101073.91;5057010;28;45314;-54
2023/09/09 00:32:38;;;;;;;;;17.25;13.75;;;;;28.15;43.78;101082.34;5056631;28;45286;-55
2023/09/09 00:35:04;;;;;;;;;23.00;17.00;;;;;28.13;44.10;101076.31;5057671;28;45176;-51
2023/09/09 00:37:29;;;;;;;;;20.00;13.50;;;;;28.09;44.18;101073.25;5057233;28;46430;-52
2023/09/09 00:39:55;;;;;;;;;17.00;15.75;;;;;28.02;43.75;101064.41;5057348;28;45641;-60
2023/09/09 00:42:20;;;;;;;;;12.00;12.00;;;;;28.06;44.14;101080.09;5057270;28;45409;-59
2023/09/09 00:44:46;;;;;;;;;15.50;13.75;;;;;28.02;44.90;101069.88;5057307;28;45452;-53
2023/09/09 00:47:11;;;;;;;;;14.75;14.00;;;;;28.03;44.71;101069.66;5056876;28;46433;-52
2023/09/09 00:49:36;;;;;;;;;19.50;14.25;;;;;28.03;45.08;101075.13;5055868;28;45471;-57
2023/09/09 00:52:02;;;;;;;;;16.25;16.00;;;;;28.03;44.60;101069.66;5056887;28;45341;-52
2023/09/09 00:54:27;;;;;;;;;17.50;15.00;;;;;28.04;45.09;101071.28;5056944;28;45610;-52
2023/09/09 00:56:58;;;;;;;;;15.50;13.25;;;;;28.01;45.21;101066.31;5056812;28;46312;-55
2023/09/09 00:59:24;;;;;;;;;13.00;13.00;;;;;28.01;45.55;101066.31;5056813;28;45476;-51
2023/09/09 01:01:49;;;;;;;;;19.00;16.25;;;;;27.95;44.27;101061.06;5056995;28;45317;-52
2023/09/09 01:04:15;;;;;;;;;16.25;12.75;;;;;28.02;45.16;101069.88;5055757;28;45476;-60
2023/09/09 01:06:41;;;;;;;;;17.00;14.75;;;;;28.01;45.15;101077.25;5056544;28;46387;-52
2023/09/09 01:09:08;;;;;;;;;13.20;12.00;;;;;27.98;45.53;101076.94;5056253;28;45306;-52
2023/09/09 01:11:34;;;;;;;;;17.80;14.20;;;;;27.97;45.46;101076.13;5056519;28;45420;-50
2023/09/09 01:13:59;;;;;;;;;16.50;14.50;;;;;27.97;44.96;101081.59;5056703;28;45444;-53
2023/09/09 01:16:26;;;;;;;;;18.00;14.75;;;;;27.95;44.75;101080.19;5056427;28;46299;-52
2023/09/09 01:18:51;;;;;;;;;17.20;15.60;;;;;27.92;45.26;101080.69;5056558;28;45383;-51
2023/09/09 01:21:18;;;;;;;;;16.50;15.50;;;;;27.89;45.91;101090.22;5056098;28;45802;-49
2023/09/09 01:23:44;;;;;;;;;17.40;13.60;;;;;27.88;45.44;101082.28;5057216;28;45512;-61
2023/09/09 01:26:09;;;;;;;;;18.50;16.25;;;;;27.83;45.69;101075.66;5056776;28;45359;-57
2023/09/09 01:28:35;;;;;;;;;15.00;13.50;;;;;27.81;45.71;101079.72;5056756;28;45366;-53
2023/09/09 01:31:00;;;;;;;;;17.00;14.50;;;;;27.74;45.57;101069.00;5056648;28;45377;-59
2023/09/09 01:33:26;;;;;;;;;17.00;16.25;;;;;27.74;46.32;101076.38;5057071;28;45364;-60
2023/09/09 01:35:51;;;;;;;;;16.75;12.75;;;;;27.73;45.42;101075.53;5055904;28;45408;-56
2023/09/09 01:38:17;;;;;;;;;18.25;17.25;;;;;27.73;46.31;101074.72;5055050;28;48760;-52
2023/09/09 01:40:42;;;;;;;;;14.25;14.25;;;;;27.70;46.40;101076.00;5056787;28;45412;-53
2023/09/09 01:43:07;;;;;;;;;15.25;15.00;;;;;27.61;46.25;101070.16;5056767;28;45436;-52
2023/09/09 01:45:33;;;;;;;;;19.25;16.50;;;;;27.65;46.49;101080.59;5056183;28;46245;-57
2023/09/09 01:47:58;;;;;;;;;15.25;13.75;;;;;27.64;46.08;101077.00;5056729;28;45452;-54
2023/09/09 01:50:23;;;;;;;;;15.75;14.25;;;;;27.64;47.26;101082.47;5055214;28;45401;-53
2023/09/09 01:52:49;;;;;;;;;16.75;15.25;;;;;27.65;46.65;101075.94;5056731;28;45469;-57
2023/09/09 01:55:14;;;;;;;;;19.25;17.25;;;;;27.63;46.67;101069.06;5055286;28;46195;-57
2023/09/09 01:57:40;;;;;;;;;14.75;14.75;;;;;27.60;46.48;101068.50;5055076;28;45471;-55
2023/09/09 02:00:09;;;;;;;;;15.50;14.50;;;;;27.59;46.62;101072.31;5056369;28;45685;-60
2023/09/09 02:02:34;;;;;;;;;19.20;14.40;;;;;27.59;46.81;101069.56;5056275;28;45431;-59
2023/09/09 02:05:00;;;;;;;;;18.00;14.75;;;;;27.56;47.00;101064.63;5056047;28;45960;-60
2023/09/09 02:07:25;;;;;;;;;18.50;15.25;;;;;27.57;46.99;101065.44;5055438;28;45364;-60
2023/09/09 02:09:50;;;;;;;;;16.00;15.00;;;;;27.59;46.67;101074.22;5055812;28;46053;-57
2023/09/09 02:12:16;;;;;;;;;13.50;12.50;;;;;27.56;46.81;101072.81;5055045;28;45426;-59
2023/09/09 02:14:41;;;;;;;;;17.00;16.00;;;;;27.50;47.02;101065.63;5054915;28;45471;-61
2023/09/09 02:17:07;;;;;;;;;14.00;12.00;;;;;27.50;46.55;101075.72;5055169;28;45212;-59
2023/09/09 02:19:32;;;;;;;;;19.00;17.25;;;;;27.43;46.93;101072.34;5054999;28;45463;-57
2023/09/09 02:21:58;;;;;;;;;17.75;16.50;;;;;27.39;47.17;101072.03;5055794;28;45504;-59
2023/09/09 02:24:23;;;;;;;;;15.75;14.25;;;;;27.37;46.92;101071.44;5053893;28;46334;-54
2023/09/09 02:26:48;;;;;;;;;17.00;14.25;;;;;27.34;47.33;101078.22;5054638;28;45418;-57
2023/09/09 02:29:14;;;;;;;;;18.00;17.00;;;;;27.31;46.95;101073.28;5055713;28;45365;-57
2023/09/09 02:31:39;;;;;;;;;17.00;14.25;;;;;27.23;47.09;101068.22;5055920;28;45538;-61
2023/09/09 02:34:04;;;;;;;;;18.25;13.75;;;;;27.19;46.94;101066.25;5055368;28;45590;-58
2023/09/09 02:36:31;;;;;;;;;15.00;13.75;;;;;27.16;47.23;101069.47;5055517;28;45239;-58
2023/09/09 02:38:56;;;;;;;;;13.40;13.20;;;;;27.14;47.43;101069.72;5055620;28;45573;-53
2023/09/09 02:41:22;;;;;;;;;16.00;12.50;;;;;27.08;46.59;101066.03;5055105;28;45526;-48
2023/09/09 02:43:47;;;;;;;;;17.50;14.50;;;;;27.01;47.56;101064.53;5054454;28;45480;-57
2023/09/09 02:46:13;;;;;;;;;16.50;14.25;;;;;26.99;47.98;101064.81;5055243;28;45865;-55
2023/09/09 02:48:38;;;;;;;;;14.50;12.75;;;;;27.01;47.83;101067.28;5055527;28;45523;-54
2023/09/09 02:51:03;;;;;;;;;11.50;11.50;;;;;27.00;47.94;101062.91;5055805;28;45384;-60
2023/09/09 02:53:30;;;;;;;;;15.25;11.00;;;;;26.98;47.35;101067.78;5055163;28;46014;-59
2023/09/09 02:55:55;;;;;;;;;14.00;12.80;;;;;26.92;47.74;101064.13;5055388;28;45491;-57
2023/09/09 02:58:20;;;;;;;;;15.50;14.00;;;;;26.91;47.86;101072.56;5054693;28;45476;-51
2023/09/09 03:00:47;;;;;;;;;15.25;11.00;;;;;26.85;47.98;101067.03;5055198;28;45529;-62
2023/09/09 03:03:13;;;;;;;;;15.00;12.40;;;;;26.82;48.28;101072.97;5055031;28;45369;-60
2023/09/09 03:05:38;;;;;;;;;17.75;16.00;;;;;26.76;47.88;101063.06;5055139;28;45347;-52
2023/09/09 03:08:04;;;;;;;;;15.00;11.75;;;;;26.78;48.56;101071.00;5055451;28;45607;-59
2023/09/09 03:10:30;;;;;;;;;15.80;13.80;;;;;26.76;48.34;101062.25;5054955;28;45539;-60
2023/09/09 03:12:56;;;;;;;;;14.25;12.25;;;;;26.74;48.62;101067.09;5054821;28;46288;-60
2023/09/09 03:15:23;;;;;;;;;19.60;14.40;;;;;26.62;48.50;101054.34;5053963;28;45519;-55
2023/09/09 03:17:48;;;;;;;;;12.80;12.80;;;;;26.68;48.51;101076.28;5055210;28;45480;-59
2023/09/09 03:20:14;;;;;;;;;14.50;13.00;;;;;26.64;48.51;101075.13;5055398;28;45395;-60
2023/09/09 03:22:39;;;;;;;;;17.75;16.25;;;;;26.61;48.59;101077.25;5054735;28;46151;-60
2023/09/09 03:25:05;;;;;;;;;13.25;13.25;;;;;26.58;48.48;101066.00;5054669;28;49349;-60
2023/09/09 03:27:32;;;;;;;;;12.80;12.00;;;;;26.55;49.25;101069.22;5054913;28;45483;-59
2023/09/09 03:29:58;;;;;;;;;19.20;16.00;;;;;26.50;49.08;101067.22;5054946;28;45452;-58
2023/09/09 03:32:23;;;;;;;;;15.50;15.50;;;;;26.49;49.28;101071.03;5053494;28;46288;-55
2023/09/09 03:34:48;;;;;;;;;13.00;11.75;;;;;26.47;49.20;101067.72;5056066;28;45350;-52
2023/09/09 03:37:14;;;;;;;;;16.25;15.00;;;;;26.43;49.18;101065.69;5058251;28;45538;-52
2023/09/09 03:39:39;;;;;;;;;17.50;15.00;;;;;26.38;48.95;101067.25;5058425;28;45431;-54
2023/09/09 03:42:04;;;;;;;;;18.00;16.50;;;;;26.31;49.73;101061.13;5057880;28;46144;-51
2023/09/09 03:44:30;;;;;;;;;15.00;15.00;;;;;26.24;49.43;101054.13;5058143;28;45369;-52
2023/09/09 03:46:55;;;;;;;;;17.50;15.75;;;;;26.23;49.79;101055.22;5057701;28;48170;-51
2023/09/09 03:49:20;;;;;;;;;14.75;13.25;;;;;26.28;50.73;101063.50;5057334;28;45538;-52
2023/09/09 03:51:46;;;;;;;;;17.50;13.25;;;;;26.27;49.67;101064.56;5057940;28;47145;-50
2023/09/09 03:54:11;;;;;;;;;16.50;13.50;;;;;26.23;50.22;101071.56;5057835;28;45282;-51
2023/09/09 03:56:36;;;;;;;;;16.75;13.25;;;;;26.20;50.40;101067.44;5058173;28;45392;-49
2023/09/09 03:59:02;;;;;;;;;16.50;13.75;;;;;26.16;51.21;101063.53;5058068;28;45426;-60
2023/09/09 04:01:27;;;;;;;;;14.75;14.00;;;;;26.21;50.69;101070.97;5057563;28;47108;-58
2023/09/09 04:03:54;;;;;;;;;16.00;13.00;;;;;26.13;50.46;101061.31;5057205;28;45910;-60
2023/09/09 04:06:19;;;;;;;;;17.60;16.60;;;;;26.10;51.05;101062.59;5058073;28;45484;-57
2023/09/09 04:08:45;;;;;;;;;13.50;13.50;;;;;26.15;50.08;101071.97;5058010;28;45451;-59
2023/09/09 04:11:11;;;;;;;;;18.75;16.75;;;;;26.10;50.28;101073.50;5057823;28;46900;-58
2023/09/09 04:13:38;;;;;;;;;14.25;14.25;;;;;26.07;50.54;101079.44;5057824;28;45430;-58
2023/09/09 04:16:04;;;;;;;;;16.60;13.80;;;;;26.04;50.32;101074.50;5057648;28;45475;-62
2023/09/09 04:18:29;;;;;;;;;14.20;13.20;;;;;26.02;50.96;101076.63;5058043;28;45512;-49
2023/09/09 04:20:54;;;;;;;;;14.50;14.50;;;;;26.00;50.89;101078.78;5056562;28;47060;-52
2023/09/09 04:23:20;;;;;;;;;13.50;13.50;;;;;25.99;50.74;101079.81;5057515;28;45441;-48
2023/09/09 04:25:46;;;;;;;;;16.75;14.00;;;;;25.98;50.79;101082.78;5057827;28;45397;-50
2023/09/09 04:28:12;;;;;;;;;13.40;12.00;;;;;25.96;50.83;101074.03;5056990;28;45496;-53
2023/09/09 04:30:39;;;;;;;;;15.80;13.20;;;;;25.95;50.56;101080.53;5057383;28;45526;-46
2023/09/09 04:33:11;;;;;;;;;17.40;15.60;;;;;25.93;51.05;101079.97;5056434;28;45394;-46
2023/09/09 04:35:38;;;;;;;;;12.40;10.80;;;;;25.84;51.01;101068.59;5057461;28;45417;-48
2023/09/09 04:38:03;;;;;;;;;12.75;12.50;;;;;25.85;51.79;101073.81;5055799;28;45594;-48
2023/09/09 04:40:29;;;;;;;;;15.75;13.25;;;;;25.89;50.88;101085.06;5057321;28;46623;-54
2023/09/09 04:42:54;;;;;;;;;13.25;11.75;;;;;25.87;51.36;101085.31;5056752;28;45329;-50
2023/09/09 04:45:20;;;;;;;;;17.75;12.75;;;;;25.84;51.50;101074.06;5057567;28;45462;-45
2023/09/09 04:47:45;;;;;;;;;13.40;13.40;;;;;25.82;52.05;101068.81;5056685;28;45445;-55
2023/09/09 04:50:11;;;;;;;;;16.50;15.00;;;;;25.87;51.78;101085.31;5057221;28;45414;-52
2023/09/09 04:52:37;;;;;;;;;13.50;13.00;;;;;25.81;51.83;101071.81;5055575;28;45434;-58
2023/09/09 04:55:03;;;;;;;;;12.75;11.00;;;;;25.83;51.64;101083.28;5057084;28;45451;-53
2023/09/09 04:57:28;;;;;;;;;15.75;15.00;;;;;25.80;51.86;101084.59;5057135;28;45402;-49
2023/09/09 04:59:54;;;;;;;;;12.50;10.25;;;;;25.82;51.45;101093.34;5056529;28;46460;-60
2023/09/09 05:02:19;;;;;;;;;15.00;13.00;;;;;25.82;51.97;101081.63;5056590;28;45444;-55
2023/09/09 05:04:44;;;;;;;;;15.25;13.25;;;;;25.76;51.66;101071.66;5057124;28;46695;-57
2023/09/09 05:07:10;;;;;;;;;14.75;12.25;;;;;25.74;52.11;101077.34;5057096;28;45456;-58
2023/09/09 05:09:35;;;;;;;;;13.50;13.50;;;;;25.76;52.12;101093.47;5057019;28;45444;-50
2023/09/09 05:12:00;;;;;;;;;14.50;14.00;;;;;25.74;51.55;101092.88;5055240;28;45304;-58
2023/09/09 05:14:26;;;;;;;;;14.00;12.00;;;;;25.74;51.92;101087.41;5057391;28;45402;-60
2023/09/09 05:16:51;;;;;;;;;36.00;28.00;;;;;25.70;52.17;101081.59;5057689;28;45621;-59
2023/09/09 05:19:17;;;;;;;;;36.25;30.50;;;;;25.72;52.01;101086.84;5057113;28;46385;-60
2023/09/09 05:21:42;;;;;;;;;22.25;20.75;;;;;25.67;52.47;101090.28;5056991;28;46586;-58
2023/09/09 05:24:07;;;;;;;;;14.75;13.50;;;;;25.73;52.28;101094.75;5057242;28;45424;-57
2023/09/09 05:26:33;;;;;;;;;16.75;14.00;;;;;25.70;52.40;101091.69;5057406;28;45321;-56
2023/09/09 05:29:00;;;;;;;;;15.25;11.50;;;;;25.70;52.04;101089.78;5055739;28;45950;-60
2023/09/09 05:31:25;;;;;;;;;12.60;11.80;;;;;25.67;51.82;101090.28;5057010;28;45186;-59
2023/09/09 05:33:50;;;;;;;;;13.75;13.25;;;;;25.69;52.24;101098.22;5056999;28;45322;-60
2023/09/09 05:36:16;;;;;;;;;16.50;13.25;;;;;25.63;52.08;101091.81;5057127;28;45454;-60
2023/09/09 05:38:41;;;;;;;;;12.75;11.75;;;;;25.68;52.94;101102.84;5056661;28;47107;-59
2023/09/09 05:41:06;;;;;;;;;14.50;11.75;;;;;25.68;52.30;101097.38;5056766;28;45421;-60
2023/09/09 05:43:32;;;;;;;;;13.75;13.00;;;;;25.66;52.10;101106.84;5055902;28;45333;-58
2023/09/09 05:45:59;;;;;;;;;17.75;15.50;;;;;25.69;52.26;101107.22;5057023;28;45320;-61
2023/09/09 05:48:25;;;;;;;;;18.20;14.00;;;;;25.67;52.31;101103.91;5056433;28;45527;-59
2023/09/09 05:50:51;;;;;;;;;13.60;12.80;;;;;25.70;52.79;101106.13;5055884;28;45421;-60
2023/09/09 05:53:16;;;;;;;;;16.25;14.25;;;;;25.74;52.69;101120.13;5056787;28;45346;-61
2023/09/09 05:55:41;;;;;;;;;20.75;14.50;;;;;25.76;53.03;101112.53;5056869;28;45311;-57
2023/09/09 05:58:07;;;;;;;;;10.50;10.00;;;;;25.80;52.11;101114.59;5055428;28;45630;-50
2023/09/09 06:00:33;;;;;;;;;13.00;11.25;;;;;25.74;52.74;101096.41;5055411;28;45372;-48
2023/09/09 06:02:58;;;;;;;;;13.00;13.00;;;;;25.88;52.56;101119.66;5056334;28;45400;-56
2023/09/09 06:05:24;;;;;;;;;14.25;11.25;;;;;25.92;52.18;101125.47;5056712;28;45765;-54
2023/09/09 06:07:49;;;;;;;;;15.75;15.25;;;;;25.98;52.11;101118.22;5055174;28;46684;-58
2023/09/09 06:10:15;;;;;;;;;14.00;13.25;;;;;25.98;52.08;101120.97;5055936;28;45415;-57
2023/09/09 06:12:40;;;;;;;;;17.25;15.50;;;;;26.01;52.19;101118.59;5056485;28;45460;-57
2023/09/09 06:15:06;;;;;;;;;20.25;13.50;;;;;26.07;52.40;101116.78;5056580;28;45378;-57
2023/09/09 06:17:31;;;;;;;;;19.75;12.75;;;;;26.10;52.67;101113.59;5055138;28;45321;-56
2023/09/09 06:19:57;;;;;;;;;16.50;16.50;;;;;26.15;52.04;101112.84;5055850;28;45456;-56
2023/09/09 06:22:22;;;;;;;;;15.00;13.00;;;;;26.18;52.24;101109.66;5056232;28;45286;-55
2023/09/09 06:24:47;;;;;;;;;19.50;17.25;;;;;26.20;52.19;101116.50;5056452;28;45393;-48
2023/09/09 06:27:13;;;;;;;;;17.75;12.75;;;;;26.24;52.40;101119.59;5055607;28;46060;-55
2023/09/09 06:29:38;;;;;;;;;17.50;14.00;;;;;26.33;52.05;101129.03;5055843;28;45418;-57
2023/09/09 06:32:06;;;;;;;;;17.25;16.25;;;;;26.37;51.87;101127.50;5055688;28;45477;-56
2023/09/09 06:34:31;;;;;;;;;20.80;15.00;;;;;26.42;52.18;101122.16;5055135;28;45250;-50
2023/09/09 06:36:56;;;;;;;;;15.50;15.00;;;;;26.45;51.82;101134.50;5055436;28;46170;-55
2023/09/09 06:39:22;;;;;;;;;23.00;16.00;;;;;26.46;51.81;101134.25;5054432;28;45495;-55
2023/09/09 06:41:47;;;;;;;;;15.75;14.25;;;;;26.51;51.50;101134.38;5055852;28;45357;-55
2023/09/09 06:44:12;;;;;;;;;15.75;15.50;;;;;26.51;51.82;101125.34;5055816;28;45237;-57
2023/09/09 06:46:38;;;;;;;;;19.50;15.50;;;;;26.59;51.66;101136.72;5055609;28;45444;-53
2023/09/09 06:49:03;;;;;;;;;18.25;16.50;;;;;26.61;51.16;101131.00;5054308;28;45358;-56
2023/09/09 06:51:29;;;;;;;;;17.00;16.00;;;;;26.64;51.21;101124.25;5055533;28;45373;-52
2023/09/09 06:53:54;;;;;;;;;17.00;15.75;;;;;26.73;51.47;101130.94;5055247;28;45437;-54
2023/09/09 06:56:19;;;;;;;;;16.00;14.25;;;;;26.79;51.48;101136.25;5055475;28;46039;-57
2023/09/09 06:58:45;;;;;;;;;15.25;15.00;;;;;26.85;50.65;101140.75;5055339;28;45695;-56
2023/09/09 07:01:11;;;;;;;;;19.00;15.50;;;;;26.79;50.71;101113.59;5055511;28;45433;-55
2023/09/09 07:03:37;;;;;;;;;13.00;13.00;;;;;27.02;50.67;101135.31;5055370;28;45536;-57
2023/09/09 07:06:03;;;;;;;;;15.25;14.25;;;;;27.11;50.38;101133.84;5053053;28;46000;-57
2023/09/09 07:08:28;;;;;;;;;18.20;15.00;;;;;27.20;50.39;101133.44;5055658;28;45374;-57
2023/09/09 07:10:54;;;;;;;;;19.00;15.75;;;;;27.29;50.26;101131.94;5058113;28;45933;-52
2023/09/09 07:13:21;;;;;;;;;16.25;14.50;;;;;27.47;50.01;101134.41;5059506;28;45169;-57
2023/09/09 07:15:49;;;;;;;;;14.80;13.40;;;;;28.14;48.33;101121.72;5058811;28;45427;-54
2023/09/09 07:18:15;;;;;;;;;20.00;17.00;;;;;29.02;46.01;101138.88;5058692;28;45679;-56
2023/09/09 07:20:42;;;;;;;;;13.75;10.75;;;;;29.48;45.96;101129.13;5059169;28;45305;-55
2023/09/09 07:23:07;;;;;;;;;15.40;15.00;;;;;29.76;45.15;101129.91;5057400;28;45289;-57
2023/09/09 07:25:33;;;;;;;;;14.75;14.50;;;;;30.14;44.47;101133.38;5058778;28;46945;-52
2023/09/09 07:27:59;;;;;;;;;11.20;11.20;;;;;30.56;44.66;101134.09;5058937;28;45267;-50
2023/09/09 07:30:24;;;;;;;;;15.25;14.00;;;;;31.02;43.05;101134.22;5059403;28;45322;-54
2023/09/09 07:32:49;;;;;;;;;15.00;14.00;;;;;31.59;41.63;101125.94;5058937;28;45428;-56
2023/09/09 07:35:15;;;;;;;;;12.00;10.00;;;;;32.34;39.90;101118.56;5058684;28;45546;-56
2023/09/09 07:37:40;;;;;;;;;15.00;13.00;;;;;33.31;38.06;101122.59;5058891;28;45454;-54
2023/09/09 07:40:06;;;;;;;;;13.75;11.50;;;;;34.15;36.46;101134.16;5057712;28;45383;-57
2023/09/09 07:42:32;;;;;;;;;17.40;11.40;;;;;34.52;35.35;101125.13;5059026;28;45493;-57
2023/09/09 07:44:57;;;;;;;;;14.75;10.50;;;;;34.95;34.70;101131.38;5058562;28;45408;-57
2023/09/09 07:47:22;;;;;;;;;12.25;11.00;;;;;35.17;34.62;101132.69;5058740;28;45400;-57
2023/09/09 07:49:49;;;;;;;;;11.50;8.25;;;;;34.33;35.14;101135.31;5058570;28;45401;-57
2023/09/09 07:52:14;;;;;;;;;14.60;10.60;;;;;33.49;35.30;101133.75;5058964;28;45431;-58
2023/09/09 07:54:40;;;;;;;;;15.75;12.00;;;;;33.87;36.02;101141.34;5058501;28;46447;-59
2023/09/09 07:57:05;;;;;;;;;17.50;12.00;;;;;34.71;33.87;101127.88;5057459;28;45481;-59
2023/09/09 07:59:31;;;;;;;;;12.75;12.25;;;;;35.62;32.77;101144.09;5058626;28;45354;-59
2023/09/09 08:01:56;;;;;;;;;20.25;14.50;;;;;36.56;33.30;101139.97;5058800;28;45250;-59
2023/09/09 08:04:23;;;;;;;;;11.00;11.00;;;;;37.43;30.78;101133.19;5052221;28;46341;-58
2023/09/09 08:06:52;;;;;;;;;12.40;11.00;;;;;38.04;29.83;101130.66;5038247;28;45330;-60
2023/09/09 08:09:17;;;;;;;;;12.00;9.60;;;;;38.61;28.50;101139.75;5037114;28;45375;-58
2023/09/09 08:11:43;;;;;;;;;16.75;13.25;;;;;39.04;27.75;101141.72;5038625;28;45315;-54
2023/09/09 08:14:08;;;;;;;;;19.50;13.25;;;;;39.30;27.43;101130.56;5055923;28;46715;-58
2023/09/09 08:16:33;;;;;;;;;10.25;10.00;;;;;39.77;27.30;101130.56;5058245;28;46704;-58
2023/09/09 08:19:00;;;;;;;;;13.50;11.50;;;;;40.24;27.56;101136.06;5058258;28;45673;-60
2023/09/09 08:21:25;;;;;;;;;14.60;13.00;;;;;40.49;25.84;101148.19;5057627;28;45385;-52
2023/09/09 08:23:52;;;;;;;;;11.50;10.50;;;;;40.52;25.73;101139.16;5057906;28;46348;-49
2023/09/09 08:26:17;;;;;;;;;13.60;11.60;;;;;40.58;25.22;101143.41;5058015;28;45365;-56
2023/09/09 08:28:43;;;;;;;;;15.00;13.50;;;;;40.38;26.02;101138.63;5058297;28;45671;-54
2023/09/09 08:31:08;;;;;;;;;14.50;11.25;;;;;40.36;26.16;101147.31;5056814;28;45420;-57
2023/09/09 08:33:33;;;;;;;;;13.00;13.00;;;;;40.65;25.32;101151.22;5057697;28;46604;-49
2023/09/09 08:36:00;;;;;;;;;13.00;11.50;;;;;41.14;24.90;101149.47;5057856;28;45424;-54
2023/09/09 08:38:25;;;;;;;;;15.00;12.60;;;;;41.31;25.35;101144.88;5057682;28;45441;-56
2023/09/09 08:41:28;;;;;;;;;12.00;11.75;;;;;41.02;24.80;101149.44;5057995;28;45377;-50
2023/09/09 08:44:35;;;;;;;;;14.80;11.00;;;;;41.07;24.81;101134.44;5057566;28;45761;-53
2023/09/09 08:47:00;;;;;;;;;13.20;11.20;;;;;41.12;25.10;101137.00;5056473;28;45404;-53
2023/09/09 08:49:28;;;;;;;;;12.50;11.50;;;;;40.64;25.93;101150.41;5057625;28;45370;-59
2023/09/09 08:52:01;;;;;;;;;17.40;13.80;;;;;40.59;25.22;101147.81;5057802;28;45326;-57
2023/09/09 08:54:27;;;;;;;;;11.60;11.60;;;;;40.75;24.87;101141.59;5057531;28;45750;-55
2023/09/09 08:56:53;;;;;;;;;14.50;12.25;;;;;40.99;24.99;101149.31;5057411;28;45909;-55
2023/09/09 08:59:20;;;;;;;;;13.40;11.20;;;;;41.13;26.78;101144.25;5057677;28;45428;-54
2023/09/09 09:01:47;;;;;;;;;12.80;11.00;;;;;41.36;23.73;101142.66;5058000;28;45322;-57
2023/09/09 09:04:15;;;;;;;;;11.60;11.20;;;;;41.61;24.07;101142.72;5055858;28;45474;-56
2023/09/09 09:06:42;;;;;;;;;7.80;7.80;;;;;41.81;23.86;101132.66;5057488;28;45467;-55
2023/09/09 09:09:07;;;;;;;;;14.40;13.00;;;;;42.19;22.62;101139.84;5057429;28;45393;-56
2023/09/09 09:11:32;;;;;;;;;12.00;11.75;;;;;42.51;23.20;101138.03;5056211;28;45503;-57
2023/09/09 09:14:07;;;;;;;;;10.50;10.50;;;;;43.12;22.56;101143.44;5057376;28;47300;-57
2023/09/09 09:16:45;;;;;;;;;12.00;10.60;;;;;44.53;21.36;101157.72;5057183;28;45443;-56
2023/09/09 09:19:18;;;;;;;;;11.00;9.40;;;;;46.70;19.77;101160.72;5057133;28;45397;-55
2023/09/09 09:21:43;;;;;;;;;13.00;10.80;;;;;48.41;19.22;101163.47;5056230;28;45425;-57
2023/09/09 09:24:09;;;;;;;;;11.20;10.00;;;;;49.47;16.42;101156.53;5057016;28;46323;-56
2023/09/09 09:26:34;;;;;;;;;11.50;11.50;;;;;50.31;16.09;101165.31;5057209;28;45398;-56
2023/09/09 09:29:06;;;;;;;;;13.00;11.00;;;;;51.10;15.71;101153.63;5057204;28;45511;-56
2023/09/09 09:31:32;;;;;;;;;11.80;11.00;;;;;51.85;16.36;101153.81;5057125;28;45359;-55
2023/09/09 09:33:59;;;;;;;;;14.80;12.80;;;;;52.52;14.51;101156.34;5056839;28;46893;-49
2023/09/09 09:36:25;;;;;;;;;10.20;10.20;;;;;53.06;14.00;101156.44;5055860;28;45265;-52
2023/09/09 09:38:52;;;;;;;;;12.60;12.60;;;;;53.70;13.90;101154.56;5057232;28;45378;-53
2023/09/09 09:41:19;;;;;;;;;11.00;11.00;;;;;53.90;12.54;101161.09;5057121;28;45359;-53
2023/09/09 09:43:46;;;;;;;;;11.60;11.60;;;;;54.43;12.34;101156.38;5056943;28;46623;-52
2023/09/09 09:46:20;;;;;;;;;13.00;12.20;;;;;54.64;14.25;101155.13;5056655;28;45465;-54
2023/09/09 09:48:46;;;;;;;;;10.00;8.00;;;;;54.65;12.28;101153.06;5056853;28;45365;-55
2023/09/09 09:51:11;;;;;;;;;10.20;9.80;;;;;54.90;12.89;101153.31;5026336;28;46571;-54
2023/09/09 09:53:57;;;;;;;;;14.00;11.75;;;;;55.39;13.00;101150.50;5053286;28;46276;-55
2023/09/09 09:56:22;;;;;;;;;13.80;13.80;;;;;55.81;12.54;101155.56;5053523;28;45498;-56
2023/09/09 09:58:50;;;;;;;;;14.25;11.50;;;;;56.27;12.26;101148.53;5054125;28;45510;-50
2023/09/09 10:01:15;;;;;;;;;11.60;11.40;;;;;56.64;10.88;101149.88;5056684;28;45638;-53
2023/09/09 10:03:51;;;;;;;;;15.75;12.25;;;;;57.13;11.04;101146.66;5056323;28;45646;-55
2023/09/09 10:06:23;;;;;;;;;11.60;10.60;;;;;57.43;10.33;101150.94;5056202;28;45339;-54
2023/09/09 10:09:04;;;;;;;;;12.20;12.20;;;;;58.01;10.49;101146.06;5056295;28;45359;-54
2023/09/09 10:11:35;;;;;;;;;15.00;14.00;;;;;57.97;10.42;101151.94;5056488;28;45495;-56
2023/09/09 10:14:16;;;;;;;;;12.60;11.40;;;;;58.30;10.11;101152.31;5056235;28;45669;-55
2023/09/09 10:16:42;;;;;;;;;8.00;8.00;;;;;58.65;10.30;101141.53;5056249;28;45353;-53
2023/09/09 10:19:11;;;;;;;;;16.00;12.40;;;;;58.59;10.01;101136.91;5056582;28;45476;-55
2023/09/09 10:21:36;;;;;;;;;10.00;9.40;;;;;58.72;9.57;101137.56;5056229;28;45520;-54
2023/09/09 10:24:05;;;;;;;;;9.00;9.00;;;;;58.76;10.22;101128.84;5056010;28;45627;-53
2023/09/09 10:26:31;;;;;;;;;16.60;12.80;;;;;58.80;9.95;101129.47;5056042;28;45434;-53
2023/09/09 10:28:59;;;;;;;;;12.40;12.40;;;;;59.34;9.49;101133.75;5056136;28;45360;-54
2023/09/09 10:31:27;;;;;;;;;9.20;9.20;;;;;59.34;11.23;101137.44;5056707;28;45524;-52
2023/09/09 10:33:56;;;;;;;;;17.40;12.60;;;;;59.16;9.29;101131.69;5056027;28;45531;-52
2023/09/09 10:36:22;;;;;;;;;16.20;13.40;;;;;59.48;8.81;101130.31;5055994;28;45358;-56
2023/09/09 10:38:48;;;;;;;;;10.75;9.75;;;;;59.41;9.77;101130.56;5056365;28;45377;-55
2023/09/09 10:41:15;;;;;;;;;16.60;13.60;;;;;59.34;9.16;101128.84;5056185;28;45455;-55
2023/09/09 10:43:40;;;;;;;;;17.40;12.60;;;;;59.31;9.59;101132.66;5055556;28;45372;-55
2023/09/09 10:46:08;;;;;;;;;13.75;13.75;;;;;59.62;9.67;101123.91;5055343;28;45380;-55
2023/09/09 10:48:34;;;;;;;;;16.60;11.80;;;;;59.21;9.50;101119.56;5055957;28;45318;-54
2023/09/09 10:51:05;;;;;;;;;14.50;14.00;;;;;58.75;9.23;101113.72;5056009;28;45447;-54
2023/09/09 10:53:31;;;;;;;;;13.40;13.40;;;;;58.70;9.20;101117.16;5053345;28;45527;-51
2023/09/09 10:56:01;;;;;;;;;13.60;13.60;;;;;58.84;8.96;101115.81;5055853;28;45357;-50
2023/09/09 10:58:37;;;;;;;;;10.20;9.40;;;;;58.98;9.77;101115.22;5055870;28;45409;-55
2023/09/09 11:01:06;;;;;;;;;14.40;13.60;;;;;58.81;9.47;101108.13;5054094;28;45412;-51
2023/09/09 11:03:40;;;;;;;;;14.40;10.60;;;;;58.56;9.24;101112.03;5053560;28;46462;-55
2023/09/09 11:06:19;;;;;;;;;10.40;10.20;;;;;58.86;9.81;101113.28;5053258;28;45168;-54